Time,TemperatureF,DewpointF,PressureIn,WindDirection,WindDirectionDegrees,WindSpeedMPH,WindSpeedGustMPH,Humidity,HourlyPrecipIn,Conditions,Clouds,dailyrainin,SoftwareType,DateUTC
2013-01-12 00:00:00,33.1,21.5,29.85,NE,55,0.0,0.0,62,0.00,,OVC055,0.00,VWS V14.01,2013-01-12 05:00:00,
2013-01-12 00:01:00,33.1,21.5,29.85,NE,55,0.0,0.0,62,0.00,,OVC050,0.00,VWS V14.01,2013-01-12 05:01:00,
2013-01-12 00:03:00,33.1,21.5,29.85,NE,55,0.0,0.0,62,0.00,,OVC050,0.00,VWS V14.01,2013-01-12 05:03:00,
2013-01-12 00:04:00,33.1,21.5,29.85,NE,55,0.0,0.0,62,0.00,,OVC050,0.00,VWS V14.01,2013-01-12 05:04:00,
2013-01-12 00:09:00,33.1,21.5,29.85,NE,55,0.0,0.0,62,0.00,,OVC050,0.00,VWS V14.01,2013-01-12 05:09:00,
2013-01-12 00:14:00,33.1,21.5,29.85,NE,55,0.0,0.0,62,0.00,,OVC046,0.00,VWS V14.01,2013-01-12 05:14:00,
2013-01-12 00:19:00,33.3,21.7,29.85,NE,55,0.0,0.0,62,0.00,,OVC046,0.00,VWS V14.01,2013-01-12 05:19:00,
2013-01-12 00:24:00,33.3,22.0,29.85,NE,55,0.0,0.0,63,0.00,,OVC046,0.00,VWS V14.01,2013-01-12 05:24:00,
2013-01-12 00:29:00,33.3,22.0,29.85,NE,55,0.0,0.0,63,0.00,,OVC046,0.00,VWS V14.01,2013-01-12 05:29:00,
2013-01-12 00:34:00,33.3,22.0,29.85,NE,55,0.0,0.0,63,0.00,,OVC046,0.00,VWS V14.01,2013-01-12 05:34:00,
2013-01-12 00:39:00,33.3,22.0,29.85,NE,55,0.0,0.0,63,0.00,,OVC046,0.00,VWS V14.01,2013-01-12 05:39:00,
2013-01-12 00:44:00,33.3,22.4,29.85,NE,55,0.0,0.0,64,0.00,,OVC046,0.00,VWS V14.01,2013-01-12 05:44:00,
2013-01-12 00:49:00,33.4,22.6,29.85,NE,55,0.0,0.0,64,0.00,,OVC046,0.00,VWS V14.01,2013-01-12 05:49:00,
2013-01-12 00:54:00,33.6,22.8,29.85,NE,55,0.0,0.0,64,0.00,,OVC046,0.00,VWS V14.01,2013-01-12 05:54:00,
2013-01-12 00:59:00,33.6,22.8,29.85,NE,55,0.0,0.0,64,0.00,,OVC046,0.00,VWS V14.01,2013-01-12 05:59:00,
2013-01-12 01:04:00,33.6,23.1,29.83,NE,55,0.0,0.0,65,0.00,,OVC027,0.00,VWS V14.01,2013-01-12 06:04:00,
2013-01-12 01:10:00,33.4,23.3,29.83,NE,55,0.0,0.0,66,0.00,,OVC027,0.00,VWS V14.01,2013-01-12 06:10:00,
2013-01-12 01:15:00,33.4,23.7,29.83,NE,55,0.0,0.0,67,0.00,,OVC027,0.00,VWS V14.01,2013-01-12 06:15:00,
2013-01-12 01:20:00,33.3,23.5,29.83,NE,55,0.0,0.0,67,0.00,,OVC027,0.00,VWS V14.01,2013-01-12 06:20:00,
2013-01-12 01:25:00,33.4,24.0,29.83,NE,55,0.0,0.0,68,0.00,,OVC027,0.00,VWS V14.01,2013-01-12 06:25:00,
2013-01-12 01:30:00,33.4,24.0,29.83,NE,55,0.0,0.0,68,0.00,,OVC027,0.00,VWS V14.01,2013-01-12 06:30:00,
2013-01-12 01:35:00,33.6,24.5,29.83,NE,55,0.0,0.0,69,0.00,,OVC027,0.00,VWS V14.01,2013-01-12 06:35:00,
2013-01-12 01:40:00,33.8,24.7,29.83,East,96,0.0,0.0,69,0.00,,OVC027,0.00,VWS V14.01,2013-01-12 06:40:00,
2013-01-12 01:45:00,34.0,24.9,29.83,East,96,0.0,0.0,69,0.00,,OVC027,0.00,VWS V14.01,2013-01-12 06:45:00,
2013-01-12 01:51:00,34.2,25.4,29.83,East,92,0.0,0.0,70,0.00,,OVC027,0.00,VWS V14.01,2013-01-12 06:51:00,
2013-01-12 01:56:00,34.3,25.6,29.83,East,92,0.0,0.0,70,0.00,,OVC027,0.00,VWS V14.01,2013-01-12 06:56:00,
2013-01-12 02:01:00,34.5,25.8,29.83,East,100,0.0,2.2,70,0.00,,OVC018,0.00,VWS V14.01,2013-01-12 07:01:00,
2013-01-12 02:06:00,34.7,26.3,29.83,SE,143,0.0,0.0,71,0.00,,OVC018,0.00,VWS V14.01,2013-01-12 07:06:00,
2013-01-12 02:11:00,34.9,26.5,29.83,SE,142,0.0,0.0,71,0.00,,OVC018,0.00,VWS V14.01,2013-01-12 07:11:00,
2013-01-12 02:16:00,34.9,26.5,29.83,SE,142,0.0,0.0,71,0.00,,OVC018,0.00,VWS V14.01,2013-01-12 07:16:00,
2013-01-12 02:21:00,35.1,26.6,29.83,SE,142,0.0,0.0,71,0.00,,OVC018,0.00,VWS V14.01,2013-01-12 07:21:00,
2013-01-12 02:26:00,35.1,27.0,29.83,SE,142,0.0,0.0,72,0.00,,OVC018,0.00,VWS V14.01,2013-01-12 07:26:00,
2013-01-12 02:31:00,35.2,27.1,29.83,SE,142,0.0,0.0,72,0.00,,OVC018,0.00,VWS V14.01,2013-01-12 07:31:00,
2013-01-12 02:36:00,35.2,27.1,29.83,SE,142,0.0,0.0,72,0.00,,OVC018,0.00,VWS V14.01,2013-01-12 07:36:00,
2013-01-12 02:41:00,35.4,27.3,29.83,SE,142,0.0,0.0,72,0.00,,OVC018,0.00,VWS V14.01,2013-01-12 07:41:00,
2013-01-12 02:46:00,35.4,27.3,29.83,SE,142,0.0,0.0,72,0.00,,OVC018,0.00,VWS V14.01,2013-01-12 07:46:00,
2013-01-12 02:51:00,35.4,27.3,29.83,SE,142,0.0,0.0,72,0.00,,OVC018,0.00,VWS V14.01,2013-01-12 07:51:00,
2013-01-12 02:56:00,35.6,27.5,29.83,SE,142,0.0,0.0,72,0.00,,OVC018,0.00,VWS V14.01,2013-01-12 07:56:00,
2013-01-12 03:01:00,35.6,27.5,29.83,SE,142,0.0,0.0,72,0.00,,OVC014,0.00,VWS V14.01,2013-01-12 08:01:00,
2013-01-12 03:06:00,35.6,27.5,29.83,SE,142,0.0,0.0,72,0.00,,OVC014,0.00,VWS V14.01,2013-01-12 08:06:00,
2013-01-12 03:11:00,35.6,27.8,29.83,SE,142,0.0,0.0,73,0.00,,OVC014,0.00,VWS V14.01,2013-01-12 08:11:00,
2013-01-12 03:16:00,35.6,27.8,29.83,SE,142,0.0,0.0,73,0.00,,OVC014,0.00,VWS V14.01,2013-01-12 08:16:00,
2013-01-12 03:22:00,35.8,28.0,29.83,SE,142,0.0,0.0,73,0.00,,OVC016,0.00,VWS V14.01,2013-01-12 08:22:00,
2013-01-12 03:27:00,35.8,28.0,29.83,SE,142,0.0,0.0,73,0.00,,OVC016,0.00,VWS V14.01,2013-01-12 08:27:00,
2013-01-12 03:32:00,35.8,28.0,29.80,SE,142,0.0,0.0,73,0.00,,OVC016,0.00,VWS V14.01,2013-01-12 08:32:00,
2013-01-12 03:37:00,35.8,28.0,29.80,SE,142,0.0,0.0,73,0.00,,OVC016,0.00,VWS V14.01,2013-01-12 08:37:00,
2013-01-12 03:42:00,35.8,28.0,29.80,SE,142,0.0,0.0,73,0.00,,OVC016,0.00,VWS V14.01,2013-01-12 08:42:00,
2013-01-12 03:47:00,36.0,28.2,29.80,SE,142,0.0,0.0,73,0.00,,OVC016,0.00,VWS V14.01,2013-01-12 08:47:00,
2013-01-12 03:52:00,36.0,28.2,29.80,SE,142,0.0,0.0,73,0.00,,OVC016,0.00,VWS V14.01,2013-01-12 08:52:00,
2013-01-12 03:57:00,36.0,28.5,29.80,SE,142,0.0,0.0,74,0.00,,OVC016,0.00,VWS V14.01,2013-01-12 08:57:00,
2013-01-12 04:02:00,36.0,28.5,29.80,SE,142,0.0,0.0,74,0.00,,OVC024,0.00,VWS V14.01,2013-01-12 09:02:00,
2013-01-12 04:07:00,36.1,28.7,29.80,SE,142,0.0,0.0,74,0.00,,OVC024,0.00,VWS V14.01,2013-01-12 09:07:00,
2013-01-12 04:13:00,36.1,28.7,29.80,SE,142,0.0,0.0,74,0.00,,OVC024,0.00,VWS V14.01,2013-01-12 09:13:00,
2013-01-12 04:18:00,36.1,28.7,29.80,SE,142,0.0,0.0,74,0.00,,OVC024,0.00,VWS V14.01,2013-01-12 09:18:00,
2013-01-12 04:23:00,36.1,28.7,29.80,SE,142,0.0,0.0,74,0.00,,OVC024,0.00,VWS V14.01,2013-01-12 09:23:00,
2013-01-12 04:28:00,36.1,28.7,29.80,SE,142,0.0,0.0,74,0.00,,OVC024,0.00,VWS V14.01,2013-01-12 09:28:00,
2013-01-12 04:33:00,36.1,28.7,29.80,SE,142,0.0,0.0,74,0.00,,OVC024,0.00,VWS V14.01,2013-01-12 09:33:00,
2013-01-12 04:38:00,36.1,28.7,29.80,SE,142,0.0,0.0,74,0.00,,OVC024,0.00,VWS V14.01,2013-01-12 09:38:00,
2013-01-12 04:43:00,36.1,28.7,29.80,SE,142,0.0,0.0,74,0.00,,OVC024,0.00,VWS V14.01,2013-01-12 09:43:00,
2013-01-12 04:48:00,36.3,28.8,29.80,SE,142,0.0,0.0,74,0.00,,OVC024,0.00,VWS V14.01,2013-01-12 09:48:00,
2013-01-12 04:53:00,36.3,28.8,29.80,SE,142,0.0,0.0,74,0.00,,OVC024,0.00,VWS V14.01,2013-01-12 09:53:00,
2013-01-12 04:58:00,36.3,28.8,29.80,SE,142,0.0,0.0,74,0.00,,OVC024,0.00,VWS V14.01,2013-01-12 09:58:00,
2013-01-12 05:03:00,36.3,28.8,29.80,SE,142,0.0,0.0,74,0.00,,OVC024,0.00,VWS V14.01,2013-01-12 10:03:00,
2013-01-12 05:08:00,36.3,29.2,29.80,SE,142,0.0,0.0,75,0.00,,OVC024,0.00,VWS V14.01,2013-01-12 10:08:00,
2013-01-12 05:13:00,36.3,29.2,29.80,SE,142,0.0,0.0,75,0.00,,OVC024,0.00,VWS V14.01,2013-01-12 10:13:00,
2013-01-12 05:18:00,36.3,29.2,29.80,SE,142,0.0,0.0,75,0.00,,OVC024,0.00,VWS V14.01,2013-01-12 10:18:00,
2013-01-12 05:23:00,36.3,29.2,29.80,SE,142,0.0,0.0,75,0.00,,OVC024,0.00,VWS V14.01,2013-01-12 10:23:00,
2013-01-12 05:29:00,36.3,29.2,29.80,SE,142,0.0,0.0,75,0.00,,OVC024,0.00,VWS V14.01,2013-01-12 10:29:00,
2013-01-12 05:34:00,36.3,29.2,29.80,SE,142,0.0,0.0,75,0.00,,OVC024,0.00,VWS V14.01,2013-01-12 10:34:00,
2013-01-12 05:39:00,36.3,29.2,29.80,SE,142,0.0,0.0,75,0.00,,OVC024,0.00,VWS V14.01,2013-01-12 10:39:00,
2013-01-12 05:44:00,36.3,29.2,29.80,SE,142,0.0,0.0,75,0.00,,OVC024,0.00,VWS V14.01,2013-01-12 10:44:00,
2013-01-12 05:49:00,36.1,29.0,29.80,SE,142,0.0,0.0,75,0.00,,OVC024,0.00,VWS V14.01,2013-01-12 10:49:00,
2013-01-12 05:54:00,36.1,29.0,29.80,SE,142,0.0,0.0,75,0.00,,OVC024,0.00,VWS V14.01,2013-01-12 10:54:00,
2013-01-12 05:59:00,36.1,29.0,29.80,SE,142,0.0,0.0,75,0.00,,OVC024,0.00,VWS V14.01,2013-01-12 10:59:00,
2013-01-12 06:04:00,35.8,28.6,29.80,SE,142,0.0,0.0,75,0.00,,OVC041,0.00,VWS V14.01,2013-01-12 11:04:00,
2013-01-12 06:09:00,35.8,28.6,29.80,SE,142,0.0,0.0,75,0.00,,OVC041,0.00,VWS V14.01,2013-01-12 11:09:00,
2013-01-12 06:14:00,35.8,28.6,29.80,SE,142,0.0,0.0,75,0.00,,OVC041,0.00,VWS V14.01,2013-01-12 11:14:00,
2013-01-12 06:20:00,35.8,28.6,29.80,SE,142,0.0,0.0,75,0.00,,OVC041,0.00,VWS V14.01,2013-01-12 11:20:00,
2013-01-12 06:25:00,35.8,29.0,29.80,SE,142,0.0,0.0,76,0.00,,OVC041,0.00,VWS V14.01,2013-01-12 11:25:00,
2013-01-12 06:30:00,35.8,29.0,29.80,SE,142,0.0,0.0,76,0.00,,OVC041,0.00,VWS V14.01,2013-01-12 11:30:00,
2013-01-12 06:35:00,35.8,29.0,29.80,SE,142,0.0,0.0,76,0.00,,OVC041,0.00,VWS V14.01,2013-01-12 11:35:00,
2013-01-12 06:40:00,35.8,29.0,29.80,SE,142,0.0,0.0,76,0.00,,OVC041,0.00,VWS V14.01,2013-01-12 11:40:00,
2013-01-12 06:45:00,35.8,29.0,29.80,SE,142,0.0,0.0,76,0.00,,OVC041,0.00,VWS V14.01,2013-01-12 11:45:00,
2013-01-12 06:50:00,35.8,29.0,29.80,SE,142,0.0,0.0,76,0.00,,OVC037,0.00,VWS V14.01,2013-01-12 11:50:00,
2013-01-12 06:55:00,35.8,29.3,29.80,SE,142,0.0,0.0,77,0.00,,OVC037,0.00,VWS V14.01,2013-01-12 11:55:00,
2013-01-12 07:00:00,36.0,29.5,29.80,SE,142,0.0,0.0,77,0.00,,OVC037,0.00,VWS V14.01,2013-01-12 12:00:00,
2013-01-12 07:05:00,36.1,29.6,29.80,SE,142,0.0,0.0,77,0.00,,OVC037,0.00,VWS V14.01,2013-01-12 12:05:00,
2013-01-12 07:10:00,36.0,29.5,29.80,SE,142,0.0,0.0,77,0.00,,OVC037,0.00,VWS V14.01,2013-01-12 12:10:00,
2013-01-12 07:16:00,35.8,29.3,29.80,ESE,107,0.0,0.0,77,0.00,,OVC037,0.00,VWS V14.01,2013-01-12 12:16:00,
2013-01-12 07:21:00,35.6,29.1,29.80,ESE,107,0.0,0.0,77,0.00,,OVC014,0.00,VWS V14.01,2013-01-12 12:21:00,
2013-01-12 07:26:00,35.6,29.1,29.80,ESE,107,0.0,0.0,77,0.00,,OVC014,0.00,VWS V14.01,2013-01-12 12:26:00,
2013-01-12 07:31:00,35.8,29.3,29.80,ESE,107,0.0,0.0,77,0.00,,OVC014,0.00,VWS V14.01,2013-01-12 12:31:00,
2013-01-12 07:36:00,35.8,29.3,29.80,ESE,107,0.0,0.0,77,0.00,,OVC014,0.00,VWS V14.01,2013-01-12 12:36:00,
2013-01-12 07:41:00,36.0,29.8,29.80,ESE,107,0.0,0.0,78,0.00,,OVC014,0.00,VWS V14.01,2013-01-12 12:41:00,
2013-01-12 07:46:00,36.1,30.0,29.80,ESE,107,0.0,0.0,78,0.00,,OVC014,0.00,VWS V14.01,2013-01-12 12:46:00,
2013-01-12 07:51:00,36.1,30.0,29.80,ESE,107,0.0,0.0,78,0.00,,OVC014,0.00,VWS V14.01,2013-01-12 12:51:00,
2013-01-12 07:57:00,36.1,30.0,29.80,ESE,107,0.0,0.0,78,0.00,,OVC014,0.00,VWS V14.01,2013-01-12 12:57:00,
2013-01-12 08:02:00,36.3,30.1,29.83,ESE,107,0.0,0.0,78,0.00,,OVC014,0.00,VWS V14.01,2013-01-12 13:02:00,
2013-01-12 08:07:00,36.3,30.1,29.83,ESE,107,0.0,0.0,78,0.00,,OVC014,0.00,VWS V14.01,2013-01-12 13:07:00,
2013-01-12 08:12:00,36.5,30.3,29.83,ESE,107,0.0,0.0,78,0.00,,OVC014,0.00,VWS V14.01,2013-01-12 13:12:00,
2013-01-12 08:17:00,36.7,30.5,29.80,ESE,107,0.0,0.0,78,0.00,,OVC014,0.00,VWS V14.01,2013-01-12 13:17:00,
2013-01-12 08:22:00,36.7,30.5,29.80,ESE,107,0.0,0.0,78,0.00,,OVC014,0.00,VWS V14.01,2013-01-12 13:22:00,
2013-01-12 08:27:00,36.9,31.0,29.80,ESE,107,0.0,0.0,79,0.00,,OVC014,0.00,VWS V14.01,2013-01-12 13:27:00,
2013-01-12 08:32:00,37.0,31.1,29.80,ESE,107,0.0,0.0,79,0.00,,OVC014,0.00,VWS V14.01,2013-01-12 13:32:00,
2013-01-12 08:37:00,37.0,31.1,29.80,ESE,107,0.0,0.0,79,0.00,,OVC014,0.00,VWS V14.01,2013-01-12 13:37:00,
2013-01-12 08:42:00,37.2,31.3,29.80,ESE,107,0.0,0.0,79,0.04,,OVC014,0.04,VWS V14.01,2013-01-12 13:42:00,
2013-01-12 08:48:00,37.4,31.2,29.80,ESE,107,0.0,0.0,78,0.04,,OVC014,0.04,VWS V14.01,2013-01-12 13:48:00,
2013-01-12 08:53:00,37.6,31.4,29.80,ESE,107,0.0,0.0,78,0.04,,,0.04,VWS V14.01,2013-01-12 13:53:00,
2013-01-12 08:58:00,37.8,31.5,29.80,ESE,107,0.0,0.0,78,0.04,,,0.04,VWS V14.01,2013-01-12 13:58:00,
2013-01-12 09:03:00,37.6,31.4,29.80,ESE,107,0.0,0.0,78,0.04,,,0.04,VWS V14.01,2013-01-12 14:03:00,
2013-01-12 09:08:00,37.4,31.2,29.80,ESE,107,0.0,0.0,78,0.04,,,0.04,VWS V14.01,2013-01-12 14:08:00,
2013-01-12 09:13:00,37.6,31.4,29.80,ESE,107,0.0,0.0,78,0.04,,,0.04,VWS V14.01,2013-01-12 14:13:00,
2013-01-12 09:18:00,37.6,31.4,29.83,ESE,107,0.0,0.0,78,0.04,,,0.04,VWS V14.01,2013-01-12 14:18:00,
2013-01-12 09:23:00,37.6,31.0,29.83,ESE,107,0.0,0.0,77,0.04,,,0.04,VWS V14.01,2013-01-12 14:23:00,
2013-01-12 09:28:00,37.4,30.9,29.83,ESE,107,0.0,0.0,77,0.04,,,0.04,VWS V14.01,2013-01-12 14:28:00,
2013-01-12 09:33:00,37.4,30.9,29.83,ESE,107,0.0,0.0,77,0.04,,,0.04,VWS V14.01,2013-01-12 14:33:00,
2013-01-12 09:39:00,37.8,31.2,29.83,ESE,107,0.0,0.0,77,0.04,,,0.04,VWS V14.01,2013-01-12 14:39:00,
2013-01-12 09:44:00,37.9,31.7,29.83,ESE,108,0.0,0.0,78,0.00,,,0.04,VWS V14.01,2013-01-12 14:44:00,
2013-01-12 09:49:00,38.1,31.9,29.83,ESE,108,0.0,0.0,78,0.00,,,0.04,VWS V14.01,2013-01-12 14:49:00,
2013-01-12 09:54:00,38.7,32.4,29.83,South,170,0.0,0.0,78,0.00,,,0.04,VWS V14.01,2013-01-12 14:54:00,
2013-01-12 09:59:00,38.8,32.6,29.83,South,175,0.0,0.0,78,0.00,,,0.04,VWS V14.01,2013-01-12 14:59:00,
2013-01-12 10:04:00,38.8,32.6,29.83,SSW,194,0.0,0.0,78,0.00,,,0.04,VWS V14.01,2013-01-12 15:04:00,
2013-01-12 10:09:00,39.2,32.6,29.83,SSW,204,0.0,0.0,77,0.00,,,0.04,VWS V14.01,2013-01-12 15:09:00,
2013-01-12 10:14:00,39.4,32.8,29.83,WSW,248,0.0,0.0,77,0.00,,,0.04,VWS V14.01,2013-01-12 15:14:00,
2013-01-12 10:19:00,39.4,32.8,29.83,WSW,248,0.0,0.0,77,0.00,,,0.04,VWS V14.01,2013-01-12 15:19:00,
2013-01-12 10:24:00,39.6,33.0,29.83,WSW,248,0.0,0.0,77,0.00,,,0.04,VWS V14.01,2013-01-12 15:24:00,
2013-01-12 10:29:00,39.6,33.0,29.83,WSW,248,0.0,0.0,77,0.00,,,0.04,VWS V14.01,2013-01-12 15:29:00,
2013-01-12 10:35:00,39.6,33.0,29.83,WSW,248,0.0,0.0,77,0.00,,,0.04,VWS V14.01,2013-01-12 15:35:00,
2013-01-12 10:40:00,39.7,33.1,29.83,WSW,248,0.0,0.0,77,0.00,,,0.04,VWS V14.01,2013-01-12 15:40:00,
2013-01-12 10:45:00,39.4,32.8,29.83,WSW,248,0.0,0.0,77,0.00,,,0.04,VWS V14.01,2013-01-12 15:45:00,
2013-01-12 10:50:00,39.2,32.6,29.80,WSW,248,0.0,0.0,77,0.00,,,0.04,VWS V14.01,2013-01-12 15:50:00,
2013-01-12 10:55:00,38.8,32.6,29.80,WSW,248,0.0,0.0,78,0.00,,,0.04,VWS V14.01,2013-01-12 15:55:00,
2013-01-12 11:00:00,38.8,32.6,29.80,WSW,248,0.0,0.0,78,0.00,,,0.04,VWS V14.01,2013-01-12 16:00:00,
2013-01-12 11:05:00,39.2,32.9,29.80,WSW,248,0.0,0.0,78,0.00,,,0.04,VWS V14.01,2013-01-12 16:05:00,
2013-01-12 11:10:00,39.4,33.4,29.80,WSW,248,0.0,0.0,79,0.00,,,0.04,VWS V14.01,2013-01-12 16:10:00,
2013-01-12 11:15:00,39.6,33.9,29.80,WSW,248,0.0,0.0,80,0.00,,,0.04,VWS V14.01,2013-01-12 16:15:00,
2013-01-12 11:20:00,39.7,34.1,29.80,WSW,248,0.0,0.0,80,0.00,,,0.04,VWS V14.01,2013-01-12 16:20:00,
2013-01-12 11:25:00,39.9,34.6,29.80,South,169,0.0,0.0,81,0.00,,,0.04,VWS V14.01,2013-01-12 16:25:00,
2013-01-12 11:30:00,40.1,35.1,29.80,South,169,0.0,0.0,82,0.00,,,0.04,VWS V14.01,2013-01-12 16:30:00,
2013-01-12 11:35:00,40.5,35.4,29.77,South,169,0.0,0.0,82,0.00,,,0.04,VWS V14.01,2013-01-12 16:35:00,
2013-01-12 11:41:00,40.5,35.7,29.77,WSW,238,0.0,0.0,83,0.00,,,0.04,VWS V14.01,2013-01-12 16:41:00,
2013-01-12 11:46:00,40.5,36.0,29.77,SW,232,5.4,5.4,84,0.00,,,0.04,VWS V14.01,2013-01-12 16:46:00,
2013-01-12 11:51:00,40.5,36.0,29.77,WSW,253,0.0,0.0,84,0.00,,,0.04,VWS V14.01,2013-01-12 16:51:00,
2013-01-12 11:56:00,40.6,36.5,29.77,WSW,253,0.0,0.0,85,0.00,,,0.04,VWS V14.01,2013-01-12 16:56:00,
2013-01-12 12:01:00,40.6,36.5,29.77,WSW,253,0.0,0.0,85,0.00,,,0.04,VWS V14.01,2013-01-12 17:01:00,
2013-01-12 12:06:00,40.6,36.8,29.77,WSW,253,0.0,0.0,86,0.00,,,0.04,VWS V14.01,2013-01-12 17:06:00,
2013-01-12 12:11:00,40.8,37.0,29.77,WSW,253,0.0,0.0,86,0.00,,,0.04,VWS V14.01,2013-01-12 17:11:00,
2013-01-12 12:16:00,40.8,37.0,29.77,WSW,253,0.0,0.0,86,0.00,,,0.04,VWS V14.01,2013-01-12 17:16:00,
2013-01-12 12:21:00,40.6,36.8,29.77,WSW,253,0.0,0.0,86,0.00,,,0.04,VWS V14.01,2013-01-12 17:21:00,
2013-01-12 12:26:00,40.6,37.1,29.77,WSW,253,0.0,0.0,87,0.00,,,0.04,VWS V14.01,2013-01-12 17:26:00,
2013-01-12 12:31:00,40.6,37.1,29.77,WSW,247,0.0,0.0,87,0.00,,,0.04,VWS V14.01,2013-01-12 17:31:00,
2013-01-12 12:36:00,40.6,37.1,29.77,WSW,247,0.0,0.0,87,0.00,,,0.04,VWS V14.01,2013-01-12 17:36:00,
2013-01-12 12:41:00,40.6,37.4,29.77,WSW,247,0.0,0.0,88,0.04,,,0.08,VWS V14.01,2013-01-12 17:41:00,
2013-01-12 12:46:00,40.5,37.2,29.77,WSW,247,0.0,0.0,88,0.04,,,0.08,VWS V14.01,2013-01-12 17:46:00,
2013-01-12 12:52:00,40.5,37.2,29.77,WSW,247,0.0,0.0,88,0.04,,OVC005,0.08,VWS V14.01,2013-01-12 17:52:00,
2013-01-12 12:57:00,40.6,37.4,29.77,WSW,247,0.0,0.0,88,0.04,,OVC005,0.08,VWS V14.01,2013-01-12 17:57:00,
2013-01-12 13:02:00,41.0,37.7,29.77,WSW,247,0.0,0.0,88,0.04,,OVC005,0.08,VWS V14.01,2013-01-12 18:02:00,
2013-01-12 13:07:00,41.2,37.9,29.77,WSW,247,0.0,0.0,88,0.04,,OVC005,0.08,VWS V14.01,2013-01-12 18:07:00,
2013-01-12 13:12:00,41.2,37.9,29.77,WSW,247,0.0,0.0,88,0.04,,OVC015,0.08,VWS V14.01,2013-01-12 18:12:00,
2013-01-12 13:17:00,41.2,37.9,29.74,WSW,247,0.0,0.0,88,0.04,,OVC015,0.08,VWS V14.01,2013-01-12 18:17:00,
2013-01-12 13:22:00,41.0,37.7,29.74,WSW,247,0.0,0.0,88,0.04,,OVC015,0.08,VWS V14.01,2013-01-12 18:22:00,
2013-01-12 13:27:00,40.8,37.8,29.74,WSW,247,0.0,0.0,89,0.04,,OVC015,0.08,VWS V14.01,2013-01-12 18:27:00,
2013-01-12 13:32:00,40.8,37.8,29.77,WSW,247,0.0,0.0,89,0.04,,OVC015,0.08,VWS V14.01,2013-01-12 18:32:00,
2013-01-12 13:37:00,41.0,38.0,29.77,WSW,247,0.0,0.0,89,0.04,,OVC015,0.08,VWS V14.01,2013-01-12 18:37:00,
2013-01-12 13:42:00,41.2,38.2,29.77,WSW,247,0.0,0.0,89,0.00,,OVC015,0.08,VWS V14.01,2013-01-12 18:42:00,
2013-01-12 13:47:00,41.4,38.7,29.77,WSW,247,0.0,0.0,90,0.00,,OVC015,0.08,VWS V14.01,2013-01-12 18:47:00,
2013-01-12 13:52:00,41.4,38.7,29.77,WSW,247,0.0,0.0,90,0.00,,OVC015,0.08,VWS V14.01,2013-01-12 18:52:00,
2013-01-12 13:58:00,41.4,38.7,29.77,WSW,247,0.0,0.0,90,0.00,,OVC015,0.08,VWS V14.01,2013-01-12 18:58:00,
2013-01-12 14:03:00,41.4,38.7,29.77,WSW,247,0.0,0.0,90,0.00,,OVC009,0.08,VWS V14.01,2013-01-12 19:03:00,
2013-01-12 14:08:00,41.4,38.7,29.77,WSW,247,0.0,0.0,90,0.00,,OVC009,0.08,VWS V14.01,2013-01-12 19:08:00,
2013-01-12 14:13:00,41.2,38.5,29.77,WSW,247,0.0,0.0,90,0.00,,OVC009,0.08,VWS V14.01,2013-01-12 19:13:00,
2013-01-12 14:18:00,40.8,38.1,29.77,WSW,247,0.0,0.0,90,0.00,,OVC009,0.08,VWS V14.01,2013-01-12 19:18:00,
2013-01-12 14:23:00,40.6,37.9,29.77,WSW,247,0.0,0.0,90,0.00,,OVC012,0.08,VWS V14.01,2013-01-12 19:23:00,
2013-01-12 14:28:00,40.8,38.4,29.77,WSW,247,0.0,0.0,91,0.00,,OVC012,0.08,VWS V14.01,2013-01-12 19:28:00,
2013-01-12 14:33:00,41.0,38.3,29.80,WSW,247,0.0,0.0,90,0.00,,OVC012,0.08,VWS V14.01,2013-01-12 19:33:00,
2013-01-12 14:38:00,41.0,38.3,29.80,WSW,247,0.0,0.0,90,0.00,,OVC012,0.08,VWS V14.01,2013-01-12 19:38:00,
2013-01-12 14:43:00,41.0,38.3,29.80,WSW,247,0.0,0.0,90,0.00,,OVC012,0.08,VWS V14.01,2013-01-12 19:43:00,
2013-01-12 14:48:00,41.0,38.3,29.80,WSW,247,0.0,0.0,90,0.00,,OVC012,0.08,VWS V14.01,2013-01-12 19:48:00,
2013-01-12 14:53:00,41.0,38.3,29.80,WSW,247,0.0,0.0,90,0.00,,OVC012,0.08,VWS V14.01,2013-01-12 19:53:00,
2013-01-12 14:58:00,40.8,38.1,29.80,WSW,247,0.0,0.0,90,0.00,,OVC012,0.08,VWS V14.01,2013-01-12 19:58:00,
2013-01-12 15:04:00,40.6,37.9,29.80,WSW,247,0.0,0.0,90,0.00,,OVC012,0.08,VWS V14.01,2013-01-12 20:04:00,
2013-01-12 15:09:00,40.6,38.2,29.80,WSW,247,0.0,0.0,91,0.00,,OVC012,0.08,VWS V14.01,2013-01-12 20:09:00,
2013-01-12 15:14:00,40.6,37.9,29.80,WSW,247,0.0,0.0,90,0.00,,OVC012,0.08,VWS V14.01,2013-01-12 20:14:00,
2013-01-12 15:19:00,40.5,37.8,29.80,WSW,247,0.0,0.0,90,0.00,,OVC012,0.08,VWS V14.01,2013-01-12 20:19:00,
2013-01-12 15:24:00,40.3,37.6,29.80,WSW,247,0.0,0.0,90,0.00,,OVC012,0.08,VWS V14.01,2013-01-12 20:24:00,
2013-01-12 15:29:00,40.3,37.6,29.80,WSW,247,0.0,0.0,90,0.00,,OVC012,0.08,VWS V14.01,2013-01-12 20:29:00,
2013-01-12 15:34:00,40.1,37.7,29.80,WSW,247,0.0,0.0,91,0.00,,OVC012,0.08,VWS V14.01,2013-01-12 20:34:00,
2013-01-12 15:39:00,40.3,37.9,29.80,WSW,247,0.0,0.0,91,0.00,,OVC012,0.08,VWS V14.01,2013-01-12 20:39:00,
2013-01-12 15:44:00,40.1,37.7,29.80,WSW,247,0.0,0.0,91,0.00,,OVC012,0.08,VWS V14.01,2013-01-12 20:44:00,
2013-01-12 15:49:00,40.1,37.7,29.77,WSW,247,0.0,0.0,91,0.00,,OVC012,0.08,VWS V14.01,2013-01-12 20:49:00,
2013-01-12 15:54:00,40.3,37.9,29.77,WSW,247,0.0,0.0,91,0.00,,OVC012,0.08,VWS V14.01,2013-01-12 20:54:00,
2013-01-12 16:00:00,39.9,37.2,29.77,WSW,247,0.0,0.0,90,0.00,,OVC012,0.08,VWS V14.01,2013-01-12 21:00:00,
2013-01-12 16:05:00,39.4,36.7,29.80,WSW,247,0.0,0.0,90,0.00,,OVC010,0.08,VWS V14.01,2013-01-12 21:05:00,
2013-01-12 16:10:00,38.8,36.2,29.80,WSW,247,0.0,0.0,90,0.00,,OVC010,0.08,VWS V14.01,2013-01-12 21:10:00,
2013-01-12 16:15:00,38.5,35.8,29.80,WSW,247,0.0,0.0,90,0.00,,OVC010,0.08,VWS V14.01,2013-01-12 21:15:00,
2013-01-12 16:20:00,38.1,35.5,29.77,WSW,247,0.0,0.0,90,0.00,,OVC010,0.08,VWS V14.01,2013-01-12 21:20:00,
2013-01-12 16:25:00,38.1,35.7,29.77,WSW,247,0.0,0.0,91,0.00,,OVC008,0.08,VWS V14.01,2013-01-12 21:25:00,
2013-01-12 16:30:00,38.5,36.1,29.77,WSW,247,0.0,0.0,91,0.00,,OVC008,0.08,VWS V14.01,2013-01-12 21:30:00,
2013-01-12 16:35:00,38.7,36.3,29.77,WSW,247,0.0,0.0,91,0.00,,OVC008,0.08,VWS V14.01,2013-01-12 21:35:00,
2013-01-12 16:40:00,38.8,36.4,29.77,WSW,247,0.0,0.0,91,0.00,,OVC008,0.08,VWS V14.01,2013-01-12 21:40:00,
2013-01-12 16:45:00,38.5,36.1,29.77,WSW,247,0.0,0.0,91,0.00,,OVC008,0.08,VWS V14.01,2013-01-12 21:45:00,
2013-01-12 16:51:00,37.9,35.5,29.77,WSW,247,0.0,0.0,91,0.00,,OVC008,0.08,VWS V14.01,2013-01-12 21:51:00,
2013-01-12 16:56:00,37.6,35.2,29.77,WSW,247,0.0,0.0,91,0.00,,OVC008,0.08,VWS V14.01,2013-01-12 21:56:00,
2013-01-12 17:01:00,37.6,35.5,29.77,WSW,247,0.0,0.0,92,0.00,,OVC008,0.08,VWS V14.01,2013-01-12 22:01:00,
2013-01-12 17:06:00,37.9,35.8,29.77,WSW,247,0.0,0.0,92,0.00,,OVC006,0.08,VWS V14.01,2013-01-12 22:06:00,
2013-01-12 17:11:00,38.1,36.0,29.77,WSW,247,0.0,0.0,92,0.00,,OVC006,0.08,VWS V14.01,2013-01-12 22:11:00,
2013-01-12 17:16:00,37.9,35.8,29.77,WSW,247,0.0,0.0,92,0.00,,OVC006,0.08,VWS V14.01,2013-01-12 22:16:00,
2013-01-12 17:21:00,37.6,35.5,29.77,WSW,247,0.0,0.0,92,0.00,,OVC006,0.08,VWS V14.01,2013-01-12 22:21:00,
2013-01-12 17:26:00,37.9,36.1,29.77,WSW,247,0.0,0.0,93,0.00,,OVC006,0.08,VWS V14.01,2013-01-12 22:26:00,
2013-01-12 17:31:00,37.8,35.7,29.77,WSW,247,0.0,0.0,92,0.00,,OVC004,0.08,VWS V14.01,2013-01-12 22:31:00,
2013-01-12 17:36:00,37.2,35.4,29.77,WSW,247,0.0,0.0,93,0.00,,OVC004,0.08,VWS V14.01,2013-01-12 22:36:00,
2013-01-12 17:42:00,37.0,35.2,29.77,WSW,247,0.0,0.0,93,0.00,,OVC004,0.08,VWS V14.01,2013-01-12 22:42:00,
2013-01-12 17:47:00,37.2,35.7,29.77,WSW,247,0.0,0.0,94,0.00,,OVC004,0.08,VWS V14.01,2013-01-12 22:47:00,
2013-01-12 17:52:00,37.6,36.0,29.77,WSW,247,0.0,0.0,94,0.00,,,0.08,VWS V14.01,2013-01-12 22:52:00,
2013-01-12 17:57:00,37.9,36.4,29.77,WSW,247,0.0,0.0,94,0.00,,,0.08,VWS V14.01,2013-01-12 22:57:00,
2013-01-12 18:02:00,37.9,36.1,29.77,WSW,247,0.0,0.0,93,0.00,,,0.08,VWS V14.01,2013-01-12 23:02:00,
2013-01-12 18:07:00,37.4,35.6,29.77,WSW,247,0.0,0.0,93,0.00,,,0.08,VWS V14.01,2013-01-12 23:07:00,
2013-01-12 18:12:00,37.2,35.7,29.77,WSW,247,0.0,0.0,94,0.00,,,0.08,VWS V14.01,2013-01-12 23:12:00,
2013-01-12 18:17:00,37.2,35.7,29.77,WSW,247,0.0,0.0,94,0.00,,,0.08,VWS V14.01,2013-01-12 23:17:00,
2013-01-12 18:23:00,37.6,36.0,29.77,WSW,247,0.0,0.0,94,0.00,,,0.08,VWS V14.01,2013-01-12 23:23:00,
2013-01-12 18:28:00,37.4,35.8,29.77,WSW,247,0.0,0.0,94,0.00,,,0.08,VWS V14.01,2013-01-12 23:28:00,
2013-01-12 18:33:00,37.2,35.7,29.77,WSW,247,0.0,0.0,94,0.00,,,0.08,VWS V14.01,2013-01-12 23:33:00,
2013-01-12 18:38:00,36.9,35.3,29.77,WSW,247,0.0,0.0,94,0.00,,,0.08,VWS V14.01,2013-01-12 23:38:00,
2013-01-12 18:43:00,36.7,35.4,29.77,WSW,247,0.0,0.0,95,0.00,,,0.08,VWS V14.01,2013-01-12 23:43:00,
2013-01-12 18:48:00,36.9,35.6,29.77,WSW,247,0.0,0.0,95,0.00,,,0.08,VWS V14.01,2013-01-12 23:48:00,
2013-01-12 18:53:00,37.4,36.1,29.77,WSW,247,0.0,0.0,95,0.00,,,0.08,VWS V14.01,2013-01-12 23:53:00,
2013-01-12 18:58:00,37.8,36.5,29.77,WSW,247,0.0,0.0,95,0.00,,,0.08,VWS V14.01,2013-01-12 23:58:00,
2013-01-12 19:04:00,37.8,36.5,29.77,WSW,247,0.0,0.0,95,0.00,,,0.08,VWS V14.01,2013-01-13 00:04:00,
2013-01-12 19:09:00,37.6,36.3,29.77,WSW,247,0.0,0.0,95,0.00,,,0.08,VWS V14.01,2013-01-13 00:09:00,
2013-01-12 19:14:00,37.6,36.3,29.77,WSW,247,0.0,0.0,95,0.00,,,0.08,VWS V14.01,2013-01-13 00:14:00,
2013-01-12 19:19:00,37.0,35.7,29.74,WSW,247,0.0,0.0,95,0.00,,,0.08,VWS V14.01,2013-01-13 00:19:00,
2013-01-12 19:24:00,36.5,35.2,29.74,WSW,247,0.0,0.0,95,0.00,,,0.08,VWS V14.01,2013-01-13 00:24:00,
2013-01-12 19:29:00,36.3,35.0,29.74,WSW,247,0.0,0.0,95,0.00,,,0.08,VWS V14.01,2013-01-13 00:29:00,
2013-01-12 19:34:00,36.7,35.7,29.77,WSW,247,0.0,0.0,96,0.00,,,0.08,VWS V14.01,2013-01-13 00:34:00,
2013-01-12 19:39:00,36.7,35.7,29.77,WSW,247,0.0,0.0,96,0.00,,,0.08,VWS V14.01,2013-01-13 00:39:00,
2013-01-12 19:44:00,36.7,35.7,29.77,WSW,247,0.0,0.0,96,0.00,,,0.08,VWS V14.01,2013-01-13 00:44:00,
2013-01-12 19:49:00,36.9,35.8,29.77,WSW,247,0.0,0.0,96,0.00,,,0.08,VWS V14.01,2013-01-13 00:49:00,
2013-01-12 19:54:00,37.0,36.0,29.77,WSW,247,0.0,0.0,96,0.00,,,0.08,VWS V14.01,2013-01-13 00:54:00,
2013-01-12 19:59:00,37.0,36.0,29.77,WSW,247,0.0,0.0,96,0.00,,,0.08,VWS V14.01,2013-01-13 00:59:00,
2013-01-12 20:05:00,37.2,36.2,29.77,WSW,247,0.0,0.0,96,0.00,,,0.08,VWS V14.01,2013-01-13 01:05:00,
2013-01-12 20:10:00,37.2,36.2,29.77,WSW,247,0.0,0.0,96,0.00,,,0.08,VWS V14.01,2013-01-13 01:10:00,
2013-01-12 20:15:00,37.4,36.4,29.77,WSW,247,0.0,0.0,96,0.00,,,0.08,VWS V14.01,2013-01-13 01:15:00,
2013-01-12 20:20:00,37.6,36.5,29.77,WSW,247,0.0,0.0,96,0.00,,,0.08,VWS V14.01,2013-01-13 01:20:00,
2013-01-12 20:25:00,37.8,36.7,29.77,WSW,247,0.0,0.0,96,0.00,,,0.08,VWS V14.01,2013-01-13 01:25:00,
2013-01-12 20:30:00,37.9,36.9,29.77,WSW,247,0.0,0.0,96,0.00,,,0.08,VWS V14.01,2013-01-13 01:30:00,
2013-01-12 20:35:00,37.9,36.9,29.77,WSW,247,0.0,0.0,96,0.00,,,0.08,VWS V14.01,2013-01-13 01:35:00,
2013-01-12 20:41:00,38.3,37.3,29.77,WSW,247,0.0,0.0,96,0.00,,,0.08,VWS V14.01,2013-01-13 01:41:00,
2013-01-12 20:46:00,38.3,37.3,29.77,WSW,247,0.0,0.0,96,0.00,,,0.08,VWS V14.01,2013-01-13 01:46:00,
2013-01-12 20:51:00,38.5,37.7,29.77,WSW,247,0.0,0.0,97,0.00,,,0.08,VWS V14.01,2013-01-13 01:51:00,
2013-01-12 20:56:00,38.5,37.7,29.77,WSW,247,0.0,0.0,97,0.00,,,0.08,VWS V14.01,2013-01-13 01:56:00,
2013-01-12 21:01:00,38.3,37.3,29.77,WSW,251,0.0,0.0,96,0.00,,,0.08,VWS V14.01,2013-01-13 02:01:00,
2013-01-12 21:06:00,37.9,36.9,29.74,WSW,248,0.0,0.0,96,0.00,,,0.08,VWS V14.01,2013-01-13 02:06:00,
2013-01-12 21:11:00,37.9,37.2,29.74,WSW,248,0.0,0.0,97,0.00,,,0.08,VWS V14.01,2013-01-13 02:11:00,
2013-01-12 21:16:00,38.1,37.3,29.74,WSW,248,0.0,0.0,97,0.00,,,0.08,VWS V14.01,2013-01-13 02:16:00,
2013-01-12 21:21:00,38.1,37.3,29.74,WSW,248,0.0,0.0,97,0.00,,,0.08,VWS V14.01,2013-01-13 02:21:00,
2013-01-12 21:26:00,38.1,37.3,29.74,SSW,211,0.0,0.0,97,0.00,,,0.08,VWS V14.01,2013-01-13 02:26:00,
2013-01-12 21:31:00,38.1,37.3,29.74,WSW,246,0.0,0.0,97,0.00,,,0.08,VWS V14.01,2013-01-13 02:31:00,
2013-01-12 21:36:00,38.1,37.3,29.74,WSW,247,0.0,0.0,97,0.00,,,0.08,VWS V14.01,2013-01-13 02:36:00,
2013-01-12 21:42:00,38.3,37.5,29.74,WSW,247,0.0,0.0,97,0.00,,,0.08,VWS V14.01,2013-01-13 02:42:00,
2013-01-12 21:47:00,38.5,37.7,29.74,WSW,247,0.0,0.0,97,0.00,,,0.08,VWS V14.01,2013-01-13 02:47:00,
2013-01-12 21:52:00,38.5,37.7,29.74,WSW,245,0.0,0.0,97,0.00,,,0.08,VWS V14.01,2013-01-13 02:52:00,
2013-01-12 21:57:00,38.7,37.9,29.74,SW,222,0.0,0.0,97,0.00,,,0.08,VWS V14.01,2013-01-13 02:57:00,
2013-01-12 22:02:00,38.8,38.3,29.74,SW,222,0.0,0.0,98,0.00,,,0.08,VWS V14.01,2013-01-13 03:02:00,
2013-01-12 22:07:00,38.8,38.3,29.74,SW,222,0.0,0.0,98,0.00,,,0.08,VWS V14.01,2013-01-13 03:07:00,
2013-01-12 22:12:00,38.7,37.9,29.74,SW,222,0.0,0.0,97,0.00,,,0.08,VWS V14.01,2013-01-13 03:12:00,
2013-01-12 22:17:00,38.3,37.5,29.74,SW,222,0.0,0.0,97,0.00,,,0.08,VWS V14.01,2013-01-13 03:17:00,
2013-01-12 22:22:00,38.1,37.3,29.74,SW,222,0.0,0.0,97,0.00,,,0.08,VWS V14.01,2013-01-13 03:22:00,
2013-01-12 22:27:00,38.1,37.6,29.74,SW,222,0.0,0.0,98,0.00,,,0.08,VWS V14.01,2013-01-13 03:27:00,
2013-01-12 22:33:00,38.5,38.0,29.74,SW,222,0.0,0.0,98,0.00,,,0.08,VWS V14.01,2013-01-13 03:33:00,
2013-01-12 22:38:00,38.7,38.2,29.74,SW,222,0.0,0.0,98,0.00,,,0.08,VWS V14.01,2013-01-13 03:38:00,
2013-01-12 22:43:00,38.7,38.2,29.74,SW,223,0.0,0.0,98,0.00,,,0.08,VWS V14.01,2013-01-13 03:43:00,
2013-01-12 22:48:00,38.7,38.2,29.74,SW,223,0.0,0.0,98,0.00,,,0.08,VWS V14.01,2013-01-13 03:48:00,
2013-01-12 22:53:00,38.5,38.0,29.74,SW,223,0.0,0.0,98,0.00,,,0.08,VWS V14.01,2013-01-13 03:53:00,
2013-01-12 22:58:00,38.1,37.3,29.74,SW,223,0.0,0.0,97,0.00,,,0.08,VWS V14.01,2013-01-13 03:58:00,
2013-01-12 23:03:00,37.9,37.4,29.71,SW,223,0.0,0.0,98,0.00,,,0.08,VWS V14.01,2013-01-13 04:03:00,
2013-01-12 23:08:00,37.9,37.4,29.71,WSW,240,0.0,0.0,98,0.00,,,0.08,VWS V14.01,2013-01-13 04:08:00,
2013-01-12 23:13:00,37.9,37.4,29.71,WSW,240,0.0,0.0,98,0.00,,,0.08,VWS V14.01,2013-01-13 04:13:00,
2013-01-12 23:18:00,37.9,37.4,29.74,WSW,240,0.0,0.0,98,0.00,,,0.08,VWS V14.01,2013-01-13 04:18:00,
2013-01-12 23:23:00,38.1,37.6,29.74,WSW,240,0.0,0.0,98,0.00,,,0.08,VWS V14.01,2013-01-13 04:23:00,
2013-01-12 23:28:00,38.1,37.6,29.74,WSW,240,0.0,0.0,98,0.00,,,0.08,VWS V14.01,2013-01-13 04:28:00,
2013-01-12 23:33:00,37.8,37.2,29.74,WSW,240,0.0,0.0,98,0.00,,,0.08,VWS V14.01,2013-01-13 04:33:00,
2013-01-12 23:38:00,37.8,37.2,29.74,WSW,240,0.0,0.0,98,0.00,,,0.08,VWS V14.01,2013-01-13 04:38:00,
2013-01-12 23:44:00,37.9,37.4,29.74,WSW,240,0.0,0.0,98,0.00,,,0.08,VWS V14.01,2013-01-13 04:44:00,
2013-01-12 23:49:00,37.9,37.4,29.71,WSW,240,0.0,0.0,98,0.00,,,0.08,VWS V14.01,2013-01-13 04:49:00,
2013-01-12 23:54:00,37.8,37.2,29.71,WSW,240,0.0,0.0,98,0.00,,,0.08,VWS V14.01,2013-01-13 04:54:00,
2013-01-12 23:59:00,37.4,36.9,29.71,WSW,240,0.0,0.0,98,0.00,,,0.08,VWS V14.01,2013-01-13 04:59:00,